createdAt,value
2022-08-26T16:00:00.043Z,24.35
2022-08-26T16:01:00.029Z,25.64
2022-08-26T16:02:00.037Z,26.29
2022-08-26T16:03:00.020Z,26.52
2022-08-26T16:04:00.006Z,26.44
2022-08-26T16:04:59.990Z,26.43
2022-08-26T16:05:59.988Z,26.12
2022-08-26T16:07:00.007Z,25.61
2022-08-26T16:07:59.966Z,25.53
2022-08-26T16:08:59.981Z,25.93
2022-08-26T16:09:59.937Z,26.17
2022-08-26T16:10:59.928Z,26.65
2022-08-26T16:11:59.913Z,27.28
2022-08-26T16:12:59.921Z,27.8
2022-08-26T16:13:59.907Z,27.96
2022-08-26T16:14:59.880Z,28.07
2022-08-26T16:15:59.889Z,28.21
2022-08-26T16:16:59.861Z,28.51
2022-08-26T16:17:59.879Z,27.98
2022-08-26T16:18:59.845Z,27.91
2022-08-26T16:19:59.847Z,27.84
2022-08-26T16:20:59.817Z,27.59
2022-08-26T16:21:59.810Z,27.24
2022-08-26T16:22:59.805Z,27.38
2022-08-26T16:23:59.798Z,27.69
2022-08-26T16:24:59.779Z,27.59
2022-08-26T16:25:59.768Z,27.62
2022-08-26T16:26:59.752Z,27.73
2022-08-26T16:27:59.739Z,27.82
2022-08-26T16:28:59.748Z,27.84
2022-08-26T16:29:59.737Z,27.86
2022-08-26T16:30:59.712Z,28.01
2022-08-26T16:31:59.698Z,27.96
2022-08-26T16:32:59.736Z,28.09
2022-08-26T16:33:59.670Z,28.26
2022-08-26T16:34:59.665Z,28.22
2022-08-26T16:35:59.658Z,28.47
2022-08-26T16:36:59.651Z,28.77
2022-08-26T16:37:59.628Z,28.77
2022-08-26T16:38:59.628Z,28.72
2022-08-26T16:39:59.620Z,28.23
2022-08-26T16:40:59.607Z,27.98
2022-08-26T16:41:59.584Z,27.71
2022-08-26T16:42:59.584Z,27.11
2022-08-26T16:43:59.571Z,26.84
2022-08-26T16:44:59.577Z,26.55
2022-08-26T16:45:59.556Z,26.52
2022-08-26T16:46:59.538Z,26.32
2022-08-26T16:47:59.530Z,26.42
2022-08-26T16:48:59.519Z,26.4
2022-08-26T16:49:59.515Z,26.49
2022-08-26T16:50:59.490Z,26.52
2022-08-26T16:51:59.480Z,26.55
2022-08-26T16:52:59.483Z,26.43
2022-08-26T16:53:59.466Z,26.39
2022-08-26T16:54:59.451Z,26.4
2022-08-26T16:55:59.439Z,26.5
2022-08-26T16:56:59.425Z,26.59
2022-08-26T16:57:59.413Z,26.69
2022-08-26T16:58:59.430Z,26.77
2022-08-26T16:59:59.388Z,26.86
2022-08-26T17:00:59.386Z,26.89
2022-08-26T17:01:59.371Z,26.96
2022-08-26T17:02:59.370Z,27.04
2022-08-26T17:03:59.375Z,26.87
2022-08-26T17:04:59.352Z,26.74
2022-08-26T17:05:59.328Z,26.64
2022-08-26T17:06:59.314Z,26.67
2022-08-26T17:07:59.314Z,26.67
2022-08-26T17:08:59.294Z,26.69
2022-08-26T17:09:59.300Z,26.47
2022-08-26T17:10:59.288Z,26.57
2022-08-26T17:11:59.298Z,26.49
2022-08-26T17:12:59.250Z,26.47
2022-08-26T17:13:59.240Z,26.68
2022-08-26T17:14:59.224Z,26.92
2022-08-26T17:15:59.222Z,27.47
2022-08-26T17:16:59.218Z,27.91
2022-08-26T17:17:59.192Z,28.1
2022-08-26T17:18:59.180Z,28.35
2022-08-26T17:19:59.176Z,28.59
2022-08-26T17:20:59.161Z,28.82
2022-08-26T17:21:59.177Z,28.81
2022-08-26T17:22:59.146Z,29.04
2022-08-26T17:23:59.132Z,29.22
2022-08-26T17:24:59.114Z,29.34
2022-08-26T17:25:59.116Z,29.06
2022-08-26T17:26:59.108Z,28.5
2022-08-26T17:27:59.085Z,28.17
2022-08-26T17:28:59.103Z,27.73
2022-08-26T17:29:59.064Z,27.26
2022-08-26T17:30:59.055Z,27.17
2022-08-26T17:31:59.042Z,27.51
2022-08-26T17:32:59.031Z,27.35
2022-08-26T17:33:59.024Z,27.19
2022-08-26T17:34:59.033Z,27.14
2022-08-26T17:35:58.993Z,26.87
2022-08-26T17:36:58.988Z,26.77
2022-08-26T17:37:58.977Z,26.89
2022-08-26T17:38:58.990Z,26.87
2022-08-26T17:39:58.956Z,27.04
2022-08-26T17:40:58.938Z,27.14
2022-08-26T17:41:58.935Z,27.24
2022-08-26T17:42:58.942Z,27.23
2022-08-26T17:43:58.946Z,27.47
2022-08-26T17:44:58.911Z,27.47
2022-08-26T17:45:58.887Z,27.43
2022-08-26T17:46:58.875Z,27.61
2022-08-26T17:47:58.871Z,27.43
2022-08-26T17:48:58.859Z,26.86
2022-08-26T17:49:58.866Z,26.8
2022-08-26T17:50:58.841Z,26.69
2022-08-26T17:51:58.847Z,26.74
2022-08-26T17:52:58.812Z,26.87
2022-08-26T17:53:58.815Z,27.41
2022-08-26T17:54:58.789Z,27.77
2022-08-26T17:55:58.785Z,28.14
2022-08-26T17:56:58.779Z,28.4
2022-08-26T17:57:58.790Z,28.56
2022-08-26T17:58:58.747Z,28.38
2022-08-26T17:59:58.739Z,28.44
2022-08-26T18:00:58.724Z,27.98
2022-08-26T18:01:58.712Z,27.79
2022-08-26T18:02:58.711Z,27.67
2022-08-26T18:03:58.699Z,27.29
2022-08-26T18:04:58.680Z,27.02
2022-08-26T18:05:58.674Z,26.94
2022-08-26T18:06:58.784Z,26.86
2022-08-26T18:07:58.651Z,26.68
2022-08-26T18:08:58.646Z,26.55
2022-08-26T18:09:58.625Z,26.79
2022-08-26T18:10:58.614Z,26.87
2022-08-26T18:11:58.606Z,26.96
2022-08-26T18:12:58.594Z,27.05
2022-08-26T18:13:58.593Z,27.17
2022-08-26T18:14:58.598Z,27.23
2022-08-26T18:15:58.570Z,27.31
2022-08-26T18:16:58.548Z,27.42
2022-08-26T18:17:58.537Z,27.33
2022-08-26T18:18:58.524Z,27.5
2022-08-26T18:19:58.515Z,27.62
2022-08-26T18:20:58.564Z,27.59
2022-08-26T18:21:58.497Z,27.59
2022-08-26T18:22:58.485Z,27.54
2022-08-26T18:23:58.473Z,27.59
2022-08-26T18:24:58.467Z,27.39
2022-08-26T18:25:58.462Z,27.36
2022-08-26T18:26:58.435Z,27.41
2022-08-26T18:27:58.430Z,27.36
2022-08-26T18:28:58.419Z,27.26
2022-08-26T18:29:58.434Z,26.98
2022-08-26T18:30:58.406Z,26.95
2022-08-26T18:31:58.385Z,26.87
2022-08-26T18:32:58.372Z,26.91
2022-08-26T18:33:58.363Z,27.11
2022-08-26T18:34:58.350Z,27.35
2022-08-26T18:35:58.357Z,27.85
2022-08-26T18:36:58.340Z,27.91
2022-08-26T18:37:58.316Z,27.95
2022-08-26T18:38:58.309Z,27.85
2022-08-26T18:39:58.299Z,27.94
2022-08-26T18:40:58.297Z,28.07
2022-08-26T18:41:58.297Z,28.06
2022-08-26T18:42:58.261Z,28.21
2022-08-26T18:43:58.254Z,28.29
2022-08-26T18:44:59.197Z,28.22
2022-08-26T18:45:58.296Z,28.25
2022-08-26T18:46:58.222Z,28.25
2022-08-26T18:47:58.218Z,28.35
2022-08-26T18:48:58.221Z,28.46
2022-08-26T18:49:58.198Z,28.41
2022-08-26T18:50:58.177Z,28.38
2022-08-26T18:51:58.174Z,28.4
2022-08-26T18:52:58.152Z,28.44
2022-08-26T18:53:58.158Z,28.54
2022-08-26T18:54:58.155Z,28.54
2022-08-26T18:55:58.123Z,28.41
2022-08-26T18:56:58.111Z,28.38
2022-08-26T18:57:58.099Z,28.4
2022-08-26T18:58:58.090Z,28.43
2022-08-26T18:59:58.084Z,28.48
2022-08-26T19:00:58.068Z,28.51
2022-08-26T19:01:58.048Z,28.5
2022-08-26T19:02:58.039Z,28.54
2022-08-26T19:03:58.036Z,28.53
2022-08-26T19:04:58.047Z,28.66
2022-08-26T19:05:58.006Z,28.72
2022-08-26T19:06:57.998Z,28.73
2022-08-26T19:07:57.997Z,28.56
2022-08-26T19:08:57.976Z,28.26
2022-08-26T19:09:57.964Z,28.23
2022-08-26T19:10:58.005Z,28.1
2022-08-26T19:11:57.943Z,27.89
2022-08-26T19:12:57.948Z,27.91
2022-08-26T19:13:57.917Z,27.94
2022-08-26T19:14:57.917Z,27.98
2022-08-26T19:15:57.907Z,28.07
2022-08-26T19:16:57.888Z,27.96
2022-08-26T19:17:57.883Z,28.11
2022-08-26T19:18:57.876Z,28.16
2022-08-26T19:19:57.854Z,28.25
2022-08-26T19:20:57.844Z,28.21
2022-08-26T19:21:57.832Z,27.99
2022-08-26T19:22:57.833Z,27.71
2022-08-26T19:23:57.808Z,27.26
2022-08-26T19:24:57.810Z,27.09
2022-08-26T19:25:57.790Z,26.95
2022-08-26T19:26:57.782Z,26.68
2022-08-26T19:27:57.767Z,26.42
2022-08-26T19:28:57.783Z,26.21
2022-08-26T19:29:57.745Z,26.04
2022-08-26T19:30:57.763Z,25.98
2022-08-26T19:31:57.726Z,25.91
2022-08-26T19:32:57.717Z,25.74
2022-08-26T19:33:57.710Z,25.89
2022-08-26T19:34:57.690Z,26.17
2022-08-26T19:35:57.712Z,26.52
2022-08-26T19:36:57.680Z,26.91
2022-08-26T19:37:57.671Z,27.06
2022-08-26T19:38:57.648Z,27.28
2022-08-26T19:39:57.637Z,27.39
2022-08-26T19:40:57.646Z,27.62
2022-08-26T19:41:57.618Z,27.67
2022-08-26T19:42:57.605Z,27.62
2022-08-26T19:43:57.603Z,27.79
2022-08-26T19:44:57.603Z,27.88
2022-08-26T19:45:57.591Z,28.03
2022-08-26T19:46:57.582Z,27.91
2022-08-26T19:47:57.562Z,27.96
2022-08-26T19:48:57.543Z,27.86
2022-08-26T19:49:57.533Z,27.82
2022-08-26T19:50:57.523Z,27.86
2022-08-26T19:51:57.517Z,27.67
2022-08-26T19:52:57.521Z,27.61
2022-08-26T19:53:57.507Z,27.38
2022-08-26T19:54:57.488Z,27.36
2022-08-26T19:55:57.486Z,27.1
2022-08-26T19:56:57.464Z,26.83
2022-08-26T19:57:57.459Z,26.73
2022-08-26T19:58:57.442Z,26.8
2022-08-26T19:59:57.423Z,26.8
2022-08-26T20:00:57.417Z,26.89
2022-08-26T20:01:57.407Z,26.94
2022-08-26T20:02:57.396Z,27.19
2022-08-26T20:03:57.393Z,27.14
2022-08-26T20:04:57.380Z,26.69
2022-08-26T20:05:57.363Z,26.21
2022-08-26T20:06:57.356Z,26.12
2022-08-26T20:07:57.339Z,26.05
2022-08-26T20:08:57.334Z,26.06
2022-08-26T20:09:57.325Z,25.91
2022-08-26T20:10:57.312Z,25.91
2022-08-26T20:11:57.312Z,25.86
2022-08-26T20:12:57.293Z,26.17
2022-08-26T20:13:57.274Z,26.4
2022-08-26T20:14:57.265Z,26.31
2022-08-26T20:15:57.267Z,26.12
2022-08-26T20:16:57.256Z,26.24
2022-08-26T20:17:57.236Z,25.91
2022-08-26T20:18:57.225Z,25.74
2022-08-26T20:19:57.214Z,25.61
2022-08-26T20:20:57.211Z,25.62
2022-08-26T20:21:57.200Z,25.53
2022-08-26T20:22:57.186Z,25.42
2022-08-26T20:23:57.170Z,25.46
2022-08-26T20:24:57.164Z,25.57
2022-08-26T20:25:57.158Z,25.59
2022-08-26T20:26:57.144Z,25.38
2022-08-26T20:27:57.141Z,25.34
2022-08-26T20:28:57.121Z,25.2
2022-08-26T20:29:57.113Z,25.09
2022-08-26T20:30:57.099Z,25.01
2022-08-26T20:31:57.085Z,25.74
2022-08-26T20:32:57.089Z,26.69
2022-08-26T20:33:57.076Z,27.13
2022-08-26T20:34:57.113Z,27.11
2022-08-26T20:35:57.059Z,27.2
2022-08-26T20:36:57.047Z,27.29
2022-08-26T20:37:57.036Z,27.21
2022-08-26T20:38:57.032Z,27.1
2022-08-26T20:39:57.018Z,27.57
2022-08-26T20:40:57.002Z,27.41
2022-08-26T20:41:56.983Z,27.36
2022-08-26T20:42:56.977Z,27.23
2022-08-26T20:43:56.970Z,26.83
2022-08-26T20:44:56.966Z,26.91
2022-08-26T20:45:56.955Z,26.89
2022-08-26T20:46:56.931Z,26.95
2022-08-26T20:47:56.930Z,26.67
2022-08-26T20:48:56.915Z,26.61
2022-08-26T20:49:56.909Z,26.61
2022-08-26T20:50:56.909Z,26.52
2022-08-26T20:51:56.888Z,26.43
2022-08-26T20:52:56.881Z,26.59
2022-08-26T20:53:56.861Z,26.52
2022-08-26T20:54:56.848Z,26.67
2022-08-26T20:55:56.840Z,27.14
2022-08-26T20:56:56.846Z,27.2
2022-08-26T20:57:56.827Z,26.81
2022-08-26T20:58:56.845Z,26.57
2022-08-26T20:59:56.796Z,26.43
2022-08-26T21:00:56.789Z,26.4
2022-08-26T21:01:56.780Z,26.55
2022-08-26T21:02:56.789Z,26.69
2022-08-26T21:03:56.773Z,26.43
2022-08-26T21:04:56.759Z,26.83
2022-08-26T21:05:56.735Z,27.11
2022-08-26T21:06:56.730Z,26.91
2022-08-26T21:07:56.717Z,27.01
2022-08-26T21:08:56.710Z,27.04
2022-08-26T21:09:56.706Z,27.17
2022-08-26T21:10:56.689Z,27.33
2022-08-26T21:11:56.672Z,27.31
2022-08-26T21:12:56.665Z,27.46
2022-08-26T21:13:56.651Z,27.62
2022-08-26T21:14:56.648Z,27.88
2022-08-26T21:15:56.631Z,27.96
2022-08-26T21:16:56.622Z,28.07
2022-08-26T21:17:56.610Z,28.14
2022-08-26T21:18:56.603Z,28.54
2022-08-26T21:19:56.600Z,28.66
2022-08-26T21:20:56.581Z,28.21
2022-08-26T21:21:56.572Z,27.88
2022-08-26T21:22:56.570Z,27.82
2022-08-26T21:23:56.556Z,27.66
2022-08-26T21:24:56.541Z,27.39
2022-08-26T21:25:56.534Z,27.32
2022-08-26T21:26:56.519Z,27.06
2022-08-26T21:27:56.505Z,27.04
2022-08-26T21:28:56.502Z,26.87
2022-08-26T21:29:56.489Z,27.29
2022-08-26T21:30:56.482Z,27.23
2022-08-26T21:31:56.482Z,26.91
2022-08-26T21:32:56.453Z,26.91
2022-08-26T21:33:56.440Z,27.05
2022-08-26T21:34:56.430Z,26.83
2022-08-26T21:35:56.426Z,27.32
2022-08-26T21:36:56.435Z,27.16
2022-08-26T21:37:56.407Z,27.26
2022-08-26T21:38:56.393Z,27.67
2022-08-26T21:39:56.385Z,28.03
2022-08-26T21:40:56.367Z,27.88
2022-08-26T21:41:56.361Z,27.67
2022-08-26T21:42:56.349Z,27.47
2022-08-26T21:43:56.359Z,27.69
2022-08-26T21:44:56.335Z,27.59
2022-08-26T21:45:56.365Z,27.66
2022-08-26T21:46:56.305Z,27.73
2022-08-26T21:47:56.306Z,27.91
2022-08-26T21:48:56.293Z,28.04
2022-08-26T21:49:56.274Z,28.11
2022-08-26T21:50:56.268Z,28.09
2022-08-26T21:51:56.261Z,27.98
2022-08-26T21:52:56.237Z,28.07
2022-08-26T21:53:56.232Z,28.06
2022-08-26T21:54:56.219Z,28.26
2022-08-26T21:55:56.208Z,28.32
2022-08-26T21:56:56.212Z,28.23
2022-08-26T21:57:56.191Z,28.62
2022-08-26T21:58:56.173Z,28.82
2022-08-26T21:59:56.169Z,28.95
2022-08-26T22:00:56.168Z,29.03
2022-08-26T22:01:56.146Z,28.91
2022-08-26T22:02:56.133Z,29.2
2022-08-26T22:03:56.119Z,29.25
2022-08-26T22:04:56.176Z,29.35
2022-08-26T22:05:56.099Z,29.04
2022-08-26T22:06:56.091Z,28.78
2022-08-26T22:07:56.081Z,28.73
2022-08-26T22:08:56.071Z,28.44
2022-08-26T22:09:56.054Z,28.38
2022-08-26T22:10:56.047Z,28.43
2022-08-26T22:11:56.035Z,28.56
2022-08-26T22:12:56.023Z,28.69
2022-08-26T22:13:56.015Z,28.78
2022-08-26T22:14:56.000Z,29
2022-08-26T22:15:56.007Z,28.95
2022-08-26T22:16:55.972Z,28.47
2022-08-26T22:17:55.974Z,28.5
2022-08-26T22:18:55.958Z,28.4
2022-08-26T22:19:55.948Z,28.43
2022-08-26T22:20:55.930Z,28.54
2022-08-26T22:21:55.920Z,28.65
2022-08-26T22:22:55.910Z,28.4
2022-08-26T22:23:55.899Z,28.09
2022-08-26T22:24:55.894Z,27.84
2022-08-26T22:25:55.882Z,27.64
2022-08-26T22:26:55.879Z,27.42
2022-08-26T22:27:55.860Z,27.53
2022-08-26T22:28:55.852Z,27.58
2022-08-26T22:29:55.836Z,27.41
2022-08-26T22:30:55.855Z,27.42
2022-08-26T22:31:55.816Z,27.39
2022-08-26T22:32:55.816Z,27.04
2022-08-26T22:33:55.795Z,26.92
2022-08-26T22:34:55.789Z,26.67
2022-08-26T22:35:55.780Z,26.62
2022-08-26T22:36:55.771Z,26.67
2022-08-26T22:37:55.773Z,26.68
2022-08-26T22:38:55.740Z,26.72
2022-08-26T22:39:55.735Z,26.73
2022-08-26T22:40:55.719Z,27.05
2022-08-26T22:41:55.722Z,27.11
2022-08-26T22:42:55.705Z,26.84
2022-08-26T22:43:55.685Z,26.55
2022-08-26T22:44:55.679Z,26.32
2022-08-26T22:45:55.672Z,26.06
2022-08-26T22:46:55.675Z,26.15
2022-08-26T22:47:55.649Z,26.37
2022-08-26T22:48:55.656Z,26.64
2022-08-26T22:49:55.631Z,26.89
2022-08-26T22:50:55.622Z,26.96
2022-08-26T22:51:55.612Z,27.14
2022-08-26T22:52:55.598Z,27.28
2022-08-26T22:53:55.587Z,27.24
2022-08-26T22:54:55.590Z,27.46
2022-08-26T22:55:56.232Z,27.99
2022-08-26T22:56:55.555Z,28.28
2022-08-26T22:57:55.547Z,27.85
2022-08-26T22:58:55.530Z,27.61
2022-08-26T22:59:55.536Z,27.17
2022-08-26T23:00:55.528Z,27.04
2022-08-26T23:01:55.503Z,27.06
2022-08-26T23:02:55.487Z,26.89
2022-08-26T23:03:55.488Z,27.28
2022-08-26T23:04:55.468Z,27.19
2022-08-26T23:05:55.461Z,26.91
2022-08-26T23:06:55.470Z,26.46
2022-08-26T23:07:55.433Z,26.4
2022-08-26T23:08:55.427Z,26.72
2022-08-26T23:09:55.416Z,26.87
2022-08-26T23:10:55.412Z,27.05
2022-08-26T23:11:55.397Z,27.06
2022-08-26T23:12:55.390Z,27.13
2022-08-26T23:13:55.395Z,27.35
2022-08-26T23:14:55.368Z,27.19
2022-08-26T23:15:55.351Z,27.33
2022-08-26T23:16:55.345Z,27.35
2022-08-26T23:17:55.338Z,27.28
2022-08-26T23:18:55.346Z,26.89
2022-08-26T23:19:55.305Z,26.76
2022-08-26T23:20:55.299Z,26.74
2022-08-26T23:21:55.292Z,26.67
2022-08-26T23:22:55.289Z,26.54
2022-08-26T23:23:55.284Z,26.35
2022-08-26T23:24:55.317Z,26.12
2022-08-26T23:25:55.305Z,26.06
2022-08-26T23:26:55.230Z,26.11
2022-08-26T23:27:55.217Z,25.89
2022-08-26T23:28:55.219Z,25.69
2022-08-26T23:29:55.228Z,25.68
2022-08-26T23:30:55.186Z,25.68
2022-08-26T23:31:55.182Z,25.72
2022-08-26T23:32:55.168Z,25.77
2022-08-26T23:33:55.156Z,25.8
2022-08-26T23:34:55.145Z,25.93
2022-08-26T23:35:55.170Z,25.91
2022-08-26T23:36:55.124Z,25.94
2022-08-26T23:37:55.123Z,26.4
2022-08-26T23:38:55.106Z,26.73
2022-08-26T23:39:55.096Z,27.13
2022-08-26T23:40:55.097Z,26.77
2022-08-26T23:41:55.072Z,26.95
2022-08-26T23:42:55.059Z,26.83
2022-08-26T23:43:55.061Z,26.89
2022-08-26T23:44:55.038Z,26.67
2022-08-26T23:45:55.045Z,26.91
2022-08-26T23:46:55.038Z,26.65
2022-08-26T23:47:55.010Z,26.35
2022-08-26T23:48:55.055Z,26.15
2022-08-26T23:49:54.990Z,26.08
2022-08-26T23:50:54.983Z,26.22
2022-08-26T23:51:54.979Z,26.58
2022-08-26T23:52:54.971Z,26.49
2022-08-26T23:53:54.953Z,26.52
2022-08-26T23:54:54.942Z,26.46
2022-08-26T23:55:54.927Z,26.25
2022-08-26T23:56:54.914Z,26.17
2022-08-26T23:57:54.927Z,26.06
2022-08-26T23:58:54.920Z,26.17
2022-08-26T23:59:54.893Z,25.98
